createdAt,value
2016-12-06T00:00:59.125Z,0.77
2016-12-06T00:03:53.855Z,0.82
2016-12-06T00:06:48.594Z,0.86
2016-12-06T00:09:43.357Z,0.88
2016-12-06T00:12:38.107Z,0.93
2016-12-06T00:15:32.898Z,0.99
2016-12-06T00:18:27.772Z,0.01
2016-12-06T00:21:22.588Z,0.04
2016-12-06T00:24:17.453Z,0.07
2016-12-06T00:27:12.319Z,0.08
2016-12-06T00:30:07.156Z,0.09
2016-12-06T00:33:01.975Z,0.10
2016-12-06T00:35:56.713Z,0.11
2016-12-06T00:38:51.463Z,0.10
2016-12-06T00:41:46.311Z,0.08
2016-12-06T00:44:41.079Z,0.08
2016-12-06T00:47:35.812Z,0.08
2016-12-06T00:50:30.568Z,0.11
2016-12-06T00:53:25.311Z,0.14
2016-12-06T00:56:20.120Z,0.15
2016-12-06T00:59:14.921Z,0.15
2016-12-06T01:02:09.700Z,0.18
2016-12-06T01:05:04.496Z,0.22
2016-12-06T01:07:59.367Z,0.24
2016-12-06T01:10:54.223Z,0.25
2016-12-06T01:13:49.023Z,0.27
2016-12-06T01:16:43.862Z,0.30
2016-12-06T01:19:38.759Z,0.34
2016-12-06T01:22:33.565Z,0.38
2016-12-06T01:25:28.432Z,0.41
2016-12-06T01:28:23.304Z,0.45
2016-12-06T01:31:18.102Z,0.46
2016-12-06T01:34:12.960Z,0.47
2016-12-06T01:37:07.746Z,0.46
2016-12-06T01:40:02.596Z,0.46
2016-12-06T01:42:57.438Z,0.47
2016-12-06T01:45:52.336Z,0.51
2016-12-06T01:48:47.106Z,0.56
2016-12-06T01:51:41.947Z,0.62
2016-12-06T01:54:36.711Z,0.64
2016-12-06T01:57:31.652Z,0.64
2016-12-06T02:00:26.479Z,0.63
2016-12-06T02:03:21.328Z,0.62
2016-12-06T02:06:16.155Z,0.61
2016-12-06T02:09:10.944Z,0.60
2016-12-06T02:12:05.690Z,0.60
2016-12-06T02:15:00.482Z,0.63
2016-12-06T02:17:55.282Z,0.65
2016-12-06T02:20:50.117Z,0.65
2016-12-06T02:23:44.889Z,0.67
2016-12-06T02:26:39.768Z,0.68
2016-12-06T02:29:34.530Z,0.67
2016-12-06T02:32:29.426Z,0.64
2016-12-06T02:35:24.257Z,0.60
2016-12-06T02:38:19.069Z,0.58
2016-12-06T02:41:13.901Z,0.59
2016-12-06T02:44:08.728Z,0.59
2016-12-06T02:47:03.572Z,0.60
2016-12-06T02:49:58.446Z,0.62
2016-12-06T02:52:53.247Z,0.62
2016-12-06T02:55:48.094Z,0.62
2016-12-06T02:58:42.826Z,0.62
2016-12-06T03:01:37.559Z,0.62
2016-12-06T03:04:32.244Z,0.64
2016-12-06T03:07:27.042Z,0.67
2016-12-06T03:10:21.873Z,0.71
2016-12-06T03:13:16.616Z,0.74
2016-12-06T03:16:11.409Z,0.76
2016-12-06T03:19:06.232Z,0.78
2016-12-06T03:22:01.010Z,0.76
2016-12-06T03:24:55.899Z,0.76
2016-12-06T03:27:50.762Z,0.78
2016-12-06T03:30:45.609Z,0.79
2016-12-06T03:33:40.538Z,0.80
2016-12-06T03:36:35.350Z,0.81
2016-12-06T03:39:30.126Z,0.86
2016-12-06T03:42:25.035Z,0.88
2016-12-06T03:45:19.824Z,0.88
2016-12-06T03:48:14.700Z,0.88
2016-12-06T03:51:09.525Z,0.93
2016-12-06T03:54:04.395Z,0.95
2016-12-06T03:56:59.184Z,0.99
2016-12-06T03:59:53.989Z,0.98
2016-12-06T04:02:48.771Z,0.97
2016-12-06T04:05:43.521Z,0.97
2016-12-06T04:08:38.281Z,1.00
2016-12-06T04:11:33.122Z,1.00
2016-12-06T04:14:27.959Z,1.00
2016-12-06T04:17:22.813Z,1.00
2016-12-06T04:20:17.572Z,0.99
2016-12-06T04:23:12.440Z,0.96
2016-12-06T04:26:07.265Z,0.95
2016-12-06T04:29:02.198Z,0.97
2016-12-06T04:31:56.956Z,0.98
2016-12-06T04:34:51.782Z,0.96
2016-12-06T04:37:46.655Z,0.96
2016-12-06T04:40:41.484Z,0.96
2016-12-06T04:43:36.323Z,0.97
2016-12-06T04:46:31.124Z,0.96
2016-12-06T04:49:25.961Z,0.93
2016-12-06T04:52:20.806Z,0.96
2016-12-06T04:55:15.634Z,0.94
2016-12-06T04:58:10.441Z,0.96
2016-12-06T05:01:05.330Z,0.99
2016-12-06T05:04:00.160Z,0.98
2016-12-06T05:06:55.030Z,1.00
2016-12-06T05:09:49.749Z,1.00
2016-12-06T05:12:44.579Z,1.01
2016-12-06T05:15:39.405Z,1.00
2016-12-06T05:18:34.298Z,0.98
2016-12-06T05:21:29.132Z,0.98
2016-12-06T05:24:23.929Z,0.97
2016-12-06T05:27:18.791Z,0.97
2016-12-06T05:30:13.634Z,0.96
2016-12-06T05:33:08.405Z,0.96
2016-12-06T05:36:03.244Z,0.96
2016-12-06T05:38:58.123Z,0.96
2016-12-06T05:41:52.910Z,0.98
2016-12-06T05:44:47.884Z,1.02
2016-12-06T05:47:42.696Z,1.04
2016-12-06T05:50:37.786Z,1.07
2016-12-06T05:53:32.491Z,1.10
2016-12-06T05:56:27.404Z,1.13
2016-12-06T05:59:22.158Z,1.14
2016-12-06T06:02:17.088Z,1.15
2016-12-06T06:05:11.960Z,1.15
2016-12-06T06:08:06.820Z,1.17
2016-12-06T06:11:01.550Z,1.18
2016-12-06T06:13:56.450Z,1.19
2016-12-06T06:16:51.335Z,1.22
2016-12-06T06:19:46.176Z,1.22
2016-12-06T06:22:41.046Z,1.23
2016-12-06T06:25:35.866Z,1.24
2016-12-06T06:28:30.808Z,1.25
2016-12-06T06:31:25.646Z,1.22
2016-12-06T06:34:20.503Z,1.21
2016-12-06T06:37:15.375Z,1.20
2016-12-06T06:40:10.211Z,1.19
2016-12-06T06:43:04.993Z,1.18
2016-12-06T06:45:59.941Z,1.19
2016-12-06T06:48:54.720Z,1.18
2016-12-06T06:51:49.612Z,1.21
2016-12-06T06:54:44.364Z,1.22
2016-12-06T06:57:39.196Z,1.22
2016-12-06T07:00:34.046Z,1.22
2016-12-06T07:03:28.878Z,1.24
2016-12-06T07:06:23.677Z,1.27
2016-12-06T07:09:18.552Z,1.29
2016-12-06T07:12:13.372Z,1.32
2016-12-06T07:15:08.231Z,1.33
2016-12-06T07:18:03.067Z,1.36
2016-12-06T07:20:57.949Z,1.38
2016-12-06T07:23:52.870Z,1.41
2016-12-06T07:26:47.661Z,1.42
2016-12-06T07:29:42.517Z,1.42
2016-12-06T07:32:37.424Z,1.43
2016-12-06T07:35:32.375Z,1.44
2016-12-06T07:38:27.294Z,1.45
2016-12-06T07:41:22.137Z,1.46
2016-12-06T07:44:17.020Z,1.49
2016-12-06T07:47:11.884Z,1.50
2016-12-06T07:50:06.804Z,1.51
2016-12-06T07:53:01.744Z,1.52
2016-12-06T07:55:56.577Z,1.55
2016-12-06T07:58:51.474Z,1.56
2016-12-06T08:01:46.445Z,1.57
2016-12-06T08:04:41.359Z,1.57
2016-12-06T08:07:36.229Z,1.58
2016-12-06T08:10:31.109Z,1.61
2016-12-06T08:13:26.047Z,1.62
2016-12-06T08:16:21.007Z,1.62
2016-12-06T08:19:15.868Z,1.66
2016-12-06T08:22:10.758Z,1.70
2016-12-06T08:25:05.645Z,1.71
2016-12-06T08:28:00.519Z,1.71
2016-12-06T08:30:55.271Z,1.72
2016-12-06T08:33:50.217Z,1.71
2016-12-06T08:36:45.114Z,1.73
2016-12-06T08:39:39.997Z,1.74
2016-12-06T08:42:35.018Z,1.77
2016-12-06T08:45:29.622Z,1.81
2016-12-06T08:48:24.518Z,1.84
2016-12-06T08:51:19.386Z,1.87
2016-12-06T08:54:14.315Z,1.87
2016-12-06T08:57:09.185Z,1.89
2016-12-06T09:00:04.083Z,1.91
2016-12-06T09:02:59.031Z,1.90
2016-12-06T09:05:53.955Z,1.93
2016-12-06T09:08:48.813Z,1.93
2016-12-06T09:11:43.586Z,1.95
2016-12-06T09:14:38.494Z,1.98
2016-12-06T09:17:33.336Z,2.05
2016-12-06T09:20:28.353Z,2.08
2016-12-06T09:23:23.232Z,2.12
2016-12-06T09:26:18.194Z,2.14
2016-12-06T09:29:13.174Z,2.15
2016-12-06T09:32:08.023Z,2.15
2016-12-06T09:35:02.905Z,2.16
2016-12-06T09:37:57.803Z,2.16
2016-12-06T09:40:52.664Z,2.13
2016-12-06T09:43:47.623Z,2.13
2016-12-06T09:46:42.584Z,2.10
2016-12-06T09:49:37.465Z,2.12
2016-12-06T09:52:32.390Z,2.12
2016-12-06T09:55:27.300Z,2.15
2016-12-06T09:58:22.199Z,2.18
2016-12-06T10:01:17.098Z,2.22
2016-12-06T10:04:12.048Z,2.27
2016-12-06T10:07:07.025Z,2.29
2016-12-06T10:10:01.904Z,2.30
2016-12-06T10:12:56.835Z,2.29
2016-12-06T10:15:51.798Z,2.27
2016-12-06T10:18:46.706Z,2.29
2016-12-06T10:21:41.692Z,2.33
2016-12-06T10:24:36.613Z,2.33
2016-12-06T10:27:31.556Z,2.32
2016-12-06T10:30:26.413Z,2.31
2016-12-06T10:33:21.259Z,2.31
2016-12-06T10:36:16.205Z,2.31
2016-12-06T10:39:11.084Z,2.32
2016-12-06T10:42:05.959Z,2.31
2016-12-06T10:45:01.002Z,2.29
2016-12-06T10:47:56.042Z,2.29
2016-12-06T10:50:50.965Z,2.30
2016-12-06T10:53:45.904Z,2.29
2016-12-06T10:56:40.823Z,2.29
2016-12-06T10:59:35.806Z,2.26
2016-12-06T11:02:30.741Z,2.28
2016-12-06T11:05:25.677Z,2.29
2016-12-06T11:08:20.541Z,2.26
2016-12-06T11:11:15.500Z,2.24
2016-12-06T11:14:10.445Z,2.26
2016-12-06T11:17:05.359Z,2.27
2016-12-06T11:20:00.237Z,2.30
2016-12-06T11:22:55.212Z,2.34
2016-12-06T11:25:50.194Z,2.38
2016-12-06T11:28:45.161Z,2.41
2016-12-06T11:31:40.035Z,2.43
2016-12-06T11:34:35.033Z,2.40
2016-12-06T11:37:29.961Z,2.40
2016-12-06T11:40:24.882Z,2.43
2016-12-06T11:43:19.817Z,2.41
2016-12-06T11:46:14.701Z,2.41
2016-12-06T11:49:09.566Z,2.40
2016-12-06T11:52:04.497Z,2.40
2016-12-06T11:54:59.462Z,2.42
2016-12-06T11:57:54.410Z,2.44
2016-12-06T12:00:49.359Z,2.45
2016-12-06T12:03:44.263Z,2.45
2016-12-06T12:06:39.238Z,2.50
2016-12-06T12:09:34.166Z,2.52
2016-12-06T12:12:29.104Z,2.52
2016-12-06T12:15:24.004Z,2.49
2016-12-06T12:18:18.945Z,2.46
2016-12-06T12:21:13.868Z,2.47
2016-12-06T12:24:08.678Z,2.50
2016-12-06T12:27:03.704Z,2.53
2016-12-06T12:29:58.643Z,2.52
2016-12-06T12:32:53.525Z,2.46
2016-12-06T12:35:48.382Z,2.42
2016-12-06T12:38:43.329Z,2.42
2016-12-06T12:41:38.218Z,2.44
2016-12-06T12:44:33.211Z,2.44
2016-12-06T12:47:28.106Z,2.45
2016-12-06T12:50:23.007Z,2.46
2016-12-06T12:53:17.932Z,2.46
2016-12-06T12:56:12.949Z,2.44
2016-12-06T12:59:07.834Z,2.46
2016-12-06T13:02:02.853Z,2.48
2016-12-06T13:04:57.689Z,2.48
2016-12-06T13:07:52.604Z,2.47
2016-12-06T13:10:47.546Z,2.50
2016-12-06T13:13:42.464Z,2.52
2016-12-06T13:16:37.342Z,2.52
2016-12-06T13:19:32.290Z,2.50
2016-12-06T13:22:27.214Z,2.48
2016-12-06T13:25:22.079Z,2.47
2016-12-06T13:28:16.980Z,2.50
2016-12-06T13:31:11.843Z,2.50
2016-12-06T13:34:06.665Z,2.49
2016-12-06T13:37:01.507Z,2.52
2016-12-06T13:39:56.435Z,2.52
2016-12-06T13:42:51.422Z,2.51
2016-12-06T13:45:46.292Z,2.54
2016-12-06T13:48:41.204Z,2.55
2016-12-06T13:51:36.087Z,2.55
2016-12-06T13:54:30.983Z,2.52
2016-12-06T13:57:25.850Z,2.48
2016-12-06T14:00:20.872Z,2.47
2016-12-06T14:03:15.801Z,2.44
2016-12-06T14:06:10.784Z,2.39
2016-12-06T14:09:05.609Z,2.34
2016-12-06T14:12:00.583Z,2.33
2016-12-06T14:14:55.449Z,2.33
2016-12-06T14:17:50.323Z,2.36
2016-12-06T14:20:45.281Z,2.38
2016-12-06T14:23:40.201Z,2.40
2016-12-06T14:26:35.022Z,2.40
2016-12-06T14:29:29.918Z,2.41
2016-12-06T14:32:24.885Z,2.38
2016-12-06T14:35:19.723Z,2.36
2016-12-06T14:38:14.697Z,2.37
2016-12-06T14:41:09.583Z,2.36
2016-12-06T14:44:04.517Z,2.35
2016-12-06T14:46:59.440Z,2.35
2016-12-06T14:49:54.219Z,2.32
2016-12-06T14:52:49.149Z,2.31
2016-12-06T14:55:44.097Z,2.31
2016-12-06T14:58:38.959Z,2.31
2016-12-06T15:01:33.805Z,2.32
2016-12-06T15:04:28.801Z,2.33
2016-12-06T15:07:23.707Z,2.33
2016-12-06T15:10:18.690Z,2.34
2016-12-06T15:13:13.451Z,2.36
2016-12-06T15:16:08.436Z,2.36
2016-12-06T15:19:03.362Z,2.38
2016-12-06T15:21:58.340Z,2.40
2016-12-06T15:24:53.281Z,2.39
2016-12-06T15:27:48.154Z,2.39
2016-12-06T15:30:43.079Z,2.39
2016-12-06T15:33:38.041Z,2.37
2016-12-06T15:36:33.040Z,2.36
2016-12-06T15:39:27.841Z,2.38
2016-12-06T15:42:22.788Z,2.37
2016-12-06T15:45:17.716Z,2.38
2016-12-06T15:48:12.596Z,2.39
2016-12-06T15:51:07.425Z,2.39
2016-12-06T15:54:02.343Z,2.39
2016-12-06T15:56:57.297Z,2.42
2016-12-06T15:59:52.150Z,2.43
2016-12-06T16:02:47.049Z,2.43
2016-12-06T16:05:41.871Z,2.41
2016-12-06T16:08:36.779Z,2.41
2016-12-06T16:11:31.696Z,2.43
2016-12-06T16:14:26.640Z,2.47
2016-12-06T16:17:21.580Z,2.45
2016-12-06T16:20:16.492Z,2.47
2016-12-06T16:23:11.356Z,2.50
2016-12-06T16:26:06.239Z,2.46
2016-12-06T16:29:01.211Z,2.45
2016-12-06T16:31:56.111Z,2.44
2016-12-06T16:34:51.039Z,2.43
2016-12-06T16:37:45.993Z,2.45
2016-12-06T16:40:40.951Z,2.46
2016-12-06T16:43:35.933Z,2.45
2016-12-06T16:46:30.825Z,2.45
2016-12-06T16:49:25.706Z,2.46
2016-12-06T16:52:20.629Z,2.45
2016-12-06T16:55:15.537Z,2.43
2016-12-06T16:58:10.435Z,2.40
2016-12-06T17:01:05.363Z,2.39
2016-12-06T17:04:00.278Z,2.38
2016-12-06T17:06:55.229Z,2.36
2016-12-06T17:09:50.073Z,2.33
2016-12-06T17:12:44.928Z,2.32
2016-12-06T17:15:39.781Z,2.29
2016-12-06T17:18:34.656Z,2.26
2016-12-06T17:21:29.571Z,2.24
2016-12-06T17:24:24.556Z,2.23
2016-12-06T17:27:19.442Z,2.23
2016-12-06T17:30:14.368Z,2.27
2016-12-06T17:33:09.387Z,2.26
2016-12-06T17:36:04.279Z,2.25
2016-12-06T17:38:59.181Z,2.24
2016-12-06T17:41:54.081Z,2.24
2016-12-06T17:44:48.926Z,2.24
2016-12-06T17:47:43.866Z,2.25
2016-12-06T17:50:38.673Z,2.23
2016-12-06T17:53:33.540Z,2.22
2016-12-06T17:56:28.434Z,2.20
2016-12-06T17:59:23.258Z,2.18
2016-12-06T18:02:18.209Z,2.18
2016-12-06T18:05:13.166Z,2.22
2016-12-06T18:08:08.088Z,2.26
2016-12-06T18:11:03.080Z,2.28
2016-12-06T18:13:57.855Z,2.29
2016-12-06T18:16:52.869Z,2.30
2016-12-06T18:19:47.690Z,2.29
2016-12-06T18:22:42.730Z,2.32
2016-12-06T18:25:37.465Z,2.31
2016-12-06T18:28:32.463Z,2.31
2016-12-06T18:31:27.357Z,2.30
2016-12-06T18:34:22.170Z,2.29
2016-12-06T18:37:17.058Z,2.27
2016-12-06T18:40:11.888Z,2.26
2016-12-06T18:43:06.757Z,2.25
2016-12-06T18:46:01.704Z,2.24
2016-12-06T18:48:56.606Z,2.22
2016-12-06T18:51:51.540Z,2.19
2016-12-06T18:54:46.356Z,2.19
2016-12-06T18:57:41.304Z,2.18
2016-12-06T19:00:36.194Z,2.18
2016-12-06T19:03:31.114Z,2.19
2016-12-06T19:06:26.103Z,2.16
2016-12-06T19:09:20.983Z,2.15
2016-12-06T19:12:15.817Z,2.11
2016-12-06T19:15:10.575Z,2.09
2016-12-06T19:18:05.429Z,2.12
2016-12-06T19:21:00.319Z,2.10
2016-12-06T19:23:55.214Z,2.08
2016-12-06T19:26:49.949Z,2.08
2016-12-06T19:29:44.872Z,2.11
2016-12-06T19:32:39.763Z,2.11
2016-12-06T19:35:34.592Z,2.08
2016-12-06T19:38:29.483Z,2.05
2016-12-06T19:41:24.388Z,2.04
2016-12-06T19:44:19.318Z,2.05
2016-12-06T19:47:14.116Z,2.08
2016-12-06T19:50:08.990Z,2.08
2016-12-06T19:53:03.914Z,2.07
2016-12-06T19:55:58.854Z,2.05
2016-12-06T19:58:53.679Z,2.01
2016-12-06T20:01:48.560Z,1.98
2016-12-06T20:04:43.342Z,1.99
2016-12-06T20:07:38.255Z,1.93
2016-12-06T20:10:33.200Z,1.91
2016-12-06T20:13:28.000Z,1.88
2016-12-06T20:16:22.859Z,1.91
2016-12-06T20:19:17.706Z,1.94
2016-12-06T20:22:12.560Z,1.96
2016-12-06T20:25:07.438Z,1.98
2016-12-06T20:28:02.325Z,2.02
2016-12-06T20:30:57.167Z,2.03
2016-12-06T20:33:51.999Z,2.00
2016-12-06T20:36:46.955Z,1.99
2016-12-06T20:39:41.878Z,2.01
2016-12-06T20:42:36.814Z,1.97
2016-12-06T20:45:31.588Z,1.95
2016-12-06T20:48:26.588Z,1.96
2016-12-06T20:51:21.468Z,1.96
2016-12-06T20:54:16.290Z,1.97
2016-12-06T20:57:11.132Z,1.95
2016-12-06T21:00:06.018Z,1.91
2016-12-06T21:03:00.887Z,1.91
2016-12-06T21:05:55.855Z,1.88
2016-12-06T21:08:50.728Z,1.88
2016-12-06T21:11:45.649Z,1.91
2016-12-06T21:14:40.513Z,1.91
2016-12-06T21:17:35.313Z,1.91
2016-12-06T21:20:30.142Z,1.92
2016-12-06T21:23:25.031Z,1.90
2016-12-06T21:26:19.911Z,1.89
2016-12-06T21:29:14.695Z,1.88
2016-12-06T21:32:09.553Z,1.90
2016-12-06T21:35:04.409Z,1.93
2016-12-06T21:37:59.264Z,1.96
2016-12-06T21:40:54.316Z,1.98
2016-12-06T21:43:49.113Z,1.97
2016-12-06T21:46:43.928Z,1.96
2016-12-06T21:49:38.824Z,1.96
2016-12-06T21:52:33.749Z,1.98
2016-12-06T21:55:28.618Z,2.00
2016-12-06T21:58:23.444Z,2.03
2016-12-06T22:01:18.344Z,2.02
2016-12-06T22:04:13.239Z,2.04
2016-12-06T22:07:08.077Z,2.06
2016-12-06T22:10:03.109Z,2.08
2016-12-06T22:12:57.907Z,2.09
2016-12-06T22:15:52.859Z,2.12
2016-12-06T22:18:47.711Z,2.13
2016-12-06T22:21:42.642Z,2.15
2016-12-06T22:24:37.545Z,2.17
2016-12-06T22:27:32.375Z,2.19
2016-12-06T22:30:27.279Z,2.22
2016-12-06T22:33:22.227Z,2.23
2016-12-06T22:36:17.161Z,2.26
2016-12-06T22:39:12.166Z,2.26
2016-12-06T22:42:07.052Z,2.28
2016-12-06T22:45:01.948Z,2.29
2016-12-06T22:47:56.850Z,2.31
2016-12-06T22:50:51.826Z,2.30
2016-12-06T22:53:46.675Z,2.30
2016-12-06T22:56:41.546Z,2.31
2016-12-06T22:59:36.475Z,2.31
2016-12-06T23:02:31.347Z,2.31
2016-12-06T23:05:26.175Z,2.29
2016-12-06T23:08:21.010Z,2.29
2016-12-06T23:11:15.813Z,2.26
2016-12-06T23:14:10.706Z,2.23
2016-12-06T23:17:05.490Z,2.26
2016-12-06T23:20:00.338Z,2.28
2016-12-06T23:22:55.202Z,2.30
2016-12-06T23:25:50.068Z,2.31
2016-12-06T23:28:44.953Z,2.32
2016-12-06T23:31:39.880Z,2.33
2016-12-06T23:34:34.778Z,2.35
2016-12-06T23:37:29.620Z,2.38
2016-12-06T23:40:24.431Z,2.40
2016-12-06T23:43:19.256Z,2.35
2016-12-06T23:46:14.214Z,2.30
2016-12-06T23:49:09.140Z,2.22
2016-12-06T23:52:04.070Z,2.20
2016-12-06T23:54:58.924Z,2.18
2016-12-06T23:57:53.754Z,2.15
